Time,TemperatureF,DewpointF,PressureIn,WindDirection,WindDirectionDegrees,WindSpeedMPH,WindSpeedGustMPH,Humidity,HourlyPrecipIn,Conditions,Clouds,dailyrainin,SoftwareType,DateUTC
2014-02-16 00:22:00,15.0,-99.9,-100.00,NNE,23,9.0,11.0,-999,0.00,,,-99.99,,2014-02-16 06:22:00,
2014-02-16 00:52:00,15.0,-99.9,-100.00,NNE,21,10.0,13.0,-999,0.00,,,-99.99,,2014-02-16 06:52:00,
2014-02-16 01:22:00,13.0,-99.9,-100.00,North,1,14.0,17.0,-999,0.00,,,-99.99,,2014-02-16 07:22:00,
2014-02-16 01:52:00,13.0,-99.9,-100.00,North,11,12.0,14.0,-999,0.00,,,-99.99,,2014-02-16 07:52:00,
2014-02-16 02:22:00,13.0,-99.9,-100.00,North,10,13.0,16.0,-999,0.00,,,-99.99,,2014-02-16 08:22:00,
2014-02-16 02:52:00,13.0,-99.9,-100.00,NNE,25,11.0,14.0,-999,0.00,,,-99.99,,2014-02-16 08:52:00,
2014-02-16 03:03:00,13.0,-99.9,-100.00,NNE,25,11.0,14.0,-999,0.00,,,-99.99,,2014-02-16 09:03:00,
2014-02-16 03:22:00,13.0,-99.9,-100.00,NE,34,9.0,10.0,-999,0.00,,,-99.99,,2014-02-16 09:22:00,
2014-02-16 03:53:00,12.0,-99.9,-100.00,NNE,32,7.0,9.0,-999,0.00,,,-99.99,,2014-02-16 09:53:00,
2014-02-16 04:23:00,13.0,-99.9,-100.00,NNE,15,7.0,8.0,-999,0.00,,,-99.99,,2014-02-16 10:23:00,
2014-02-16 04:53:00,13.0,-99.9,-100.00,NNE,30,9.0,11.0,-999,0.00,,,-99.99,,2014-02-16 10:53:00,
2014-02-16 05:23:00,13.0,-99.9,-100.00,North,3,10.0,10.0,-999,0.00,,,-99.99,,2014-02-16 11:23:00,
2014-02-16 05:52:00,12.0,-99.9,-100.00,NNE,25,12.0,15.0,-999,0.00,,,-99.99,,2014-02-16 11:52:00,
2014-02-16 06:22:00,11.0,-99.9,-100.00,North,352,11.0,14.0,-999,0.00,,,-99.99,,2014-02-16 12:22:00,
2014-02-16 06:53:00,9.0,-99.9,-100.00,North,0,12.0,15.0,-999,0.00,,,-99.99,,2014-02-16 12:53:00,
2014-02-16 07:12:00,9.0,-99.9,-100.00,NNE,13,11.0,14.0,-999,0.00,,,-99.99,,2014-02-16 13:12:00,
2014-02-16 07:22:00,9.0,-99.9,-100.00,NNE,13,11.0,14.0,-999,0.00,,,-99.99,,2014-02-16 13:22:00,
2014-02-16 07:43:00,9.0,-99.9,-100.00,NNE,21,10.0,13.0,-999,0.00,,,-99.99,,2014-02-16 13:43:00,
2014-02-16 07:52:00,9.0,-99.9,-100.00,NNE,21,10.0,13.0,-999,0.00,,,-99.99,,2014-02-16 13:52:00,
2014-02-16 08:22:00,11.0,-99.9,-100.00,North,6,13.0,16.0,-999,0.00,,,-99.99,,2014-02-16 14:22:00,
2014-02-16 08:53:00,12.0,-99.9,-100.00,NNE,13,16.0,22.0,-999,0.00,,,-99.99,,2014-02-16 14:53:00,
2014-02-16 09:23:00,11.0,-99.9,-100.00,North,8,17.0,20.0,-999,0.00,,,-99.99,,2014-02-16 15:23:00,
2014-02-16 09:54:00,13.0,-99.9,-100.00,North,354,16.0,21.0,-999,0.00,,,-99.99,,2014-02-16 15:54:00,
2014-02-16 10:13:00,14.0,-99.9,-100.00,North,1,16.0,20.0,-999,0.00,,,-99.99,,2014-02-16 16:13:00,
2014-02-16 10:23:00,14.0,-99.9,-100.00,North,1,16.0,20.0,-999,0.00,,,-99.99,,2014-02-16 16:23:00,
2014-02-16 10:43:00,15.0,-99.9,-100.00,NNE,14,15.0,17.0,-999,0.00,,,-99.99,,2014-02-16 16:43:00,
2014-02-16 10:53:00,15.0,-99.9,-100.00,NNE,14,15.0,17.0,-999,0.00,,,-99.99,,2014-02-16 16:53:00,
2014-02-16 11:12:00,18.0,-99.9,-100.00,North,8,17.0,22.0,-999,0.00,,,-99.99,,2014-02-16 17:12:00,
2014-02-16 11:22:00,18.0,-99.9,-100.00,North,8,17.0,22.0,-999,0.00,,,-99.99,,2014-02-16 17:22:00,
2014-02-16 11:53:00,19.0,-99.9,-100.00,NNE,27,13.0,19.0,-999,0.00,,,-99.99,,2014-02-16 17:53:00,
2014-02-16 12:53:00,20.0,-99.9,-100.00,North,11,15.0,17.0,-999,0.00,,,-99.99,,2014-02-16 18:53:00,
2014-02-16 13:52:00,20.0,-99.9,-100.00,North,353,16.0,19.0,-999,0.00,,,-99.99,,2014-02-16 19:52:00,
2014-02-16 17:22:00,20.0,-99.9,-100.00,ESE,115,2.0,5.0,-999,0.00,,,-99.99,,2014-02-16 23:22:00,
2014-02-16 17:53:00,15.0,-99.9,-100.00,ESE,114,1.0,5.0,-999,0.00,,,-99.99,,2014-02-16 23:53:00,
2014-02-16 18:22:00,12.0,-99.9,-100.00,North,0,0.0,0.0,-999,0.00,,,-99.99,,2014-02-17 00:22:00,
2014-02-16 18:32:00,12.0,-99.9,-100.00,North,0,0.0,0.0,-999,0.00,,,-99.99,,2014-02-17 00:32:00,
2014-02-16 18:52:00,12.0,-99.9,-100.00,North,0,0.0,0.0,-999,0.00,,,-99.99,,2014-02-17 00:52:00,
2014-02-16 19:53:00,6.0,-99.9,-100.00,North,0,0.0,0.0,-999,0.00,,,-99.99,,2014-02-17 01:53:00,
2014-02-16 20:22:00,12.0,-99.9,-100.00,ESE,113,3.0,6.0,-999,0.00,,,-99.99,,2014-02-17 02:22:00,
2014-02-16 20:53:00,11.0,-99.9,-100.00,North,0,0.0,0.0,-999,0.00,,,-99.99,,2014-02-17 02:53:00,
2014-02-16 21:02:00,11.0,-99.9,-100.00,North,0,0.0,0.0,-999,0.00,,,-99.99,,2014-02-17 03:02:00,
2014-02-16 21:22:00,11.0,-99.9,-100.00,East,96,2.0,5.0,-999,0.00,,,-99.99,,2014-02-17 03:22:00,
2014-02-16 21:53:00,5.0,-99.9,-100.00,North,0,0.0,0.0,-999,0.00,,,-99.99,,2014-02-17 03:53:00,
2014-02-16 21:54:00,7.0,-99.9,-100.00,North,0,0.0,0.0,-999,0.00,,,-99.99,,2014-02-17 03:54:00,
2014-02-16 22:23:00,5.0,-99.9,-100.00,North,0,0.0,0.0,-999,0.00,,,-99.99,,2014-02-17 04:23:00,
2014-02-16 22:33:00,5.0,-99.9,-100.00,North,0,0.0,0.0,-999,0.00,,,-99.99,,2014-02-17 04:33:00,
2014-02-16 22:43:00,5.0,-99.9,-100.00,North,0,0.0,0.0,-999,0.00,,,-99.99,,2014-02-17 04:43:00,
2014-02-16 23:53:00,4.0,-99.9,-100.00,North,0,0.0,0.0,-999,0.00,,,-99.99,,2014-02-17 05:53:00,